Time;durP1;ratioP1;P1;durP2;ratioP2;P2;SDS_P1;SDS_P2;PMS_P1;PMS_P2;Temp;Humidity;BMP_temperature;BMP_pressure;BME280_temperature;BME280_humidity;BME280_pressure;Samples;Min_cycle;Max_cycle;Signal;HPM_P1;HPM_P2
2022/08/14 00:01:12;;;;;;;0.00;0.00;;;;;;;19.62;85.00;100312.31;5010591;28;20525;-73
2022/08/14 00:03:38;;;;;;;0.00;0.00;;;;;;;19.59;85.07;100316.63;5010716;28;20183;-73
2022/08/14 00:06:04;;;;;;;0.00;0.00;;;;;;;19.58;85.38;100317.00;5010490;28;20253;-73
2022/08/14 00:08:30;;;;;;;0.00;0.00;;;;;;;19.18;86.01;100318.38;5012889;28;20174;-73
2022/08/14 00:10:55;;;;;;;0.00;0.00;;;;;;;19.07;86.78;100327.69;5017110;28;20178;-73
2022/08/14 00:13:23;;;;;;;0.00;0.00;;;;;;;18.96;87.44;100324.78;5016913;28;20193;-71
2022/08/14 00:15:50;;;;;;;0.20;0.20;;;;;;;18.84;88.24;100328.53;5017204;28;20466;-71
2022/08/14 00:18:21;;;;;;;0.00;0.00;;;;;;;18.86;88.15;100326.19;5014974;28;20585;-71
2022/08/14 00:20:46;;;;;;;0.67;0.67;;;;;;;18.84;88.22;100324.97;5017486;28;20265;-72
2022/08/14 00:23:14;;;;;;;0.00;0.00;;;;;;;18.87;88.22;100321.44;5016962;28;20637;-71
2022/08/14 00:25:40;;;;;;;0.00;0.00;;;;;;;18.95;88.13;100325.91;5016950;28;20213;-71
2022/08/14 00:28:08;;;;;;;0.00;0.00;;;;;;;19.18;86.79;100326.69;5016653;28;20212;-72
2022/08/14 00:30:34;;;;;;;0.00;0.00;;;;;;;19.28;86.32;100325.25;5016403;28;20184;-71
2022/08/14 00:32:59;;;;;;;0.00;0.00;;;;;;;19.25;86.15;100326.03;5015639;28;20181;-71
2022/08/14 00:35:25;;;;;;;0.00;0.00;;;;;;;18.95;86.57;100321.19;5016980;28;20181;-72
2022/08/14 00:37:50;;;;;;;0.00;0.00;;;;;;;18.62;88.95;100316.25;5016594;28;20603;-71
2022/08/14 00:40:19;;;;;;;0.00;0.00;;;;;;;18.50;89.66;100312.84;5016482;28;20166;-71
2022/08/14 00:42:44;;;;;;;0.00;0.00;;;;;;;18.40;90.83;100312.31;5016747;28;20181;-71
2022/08/14 00:45:12;;;;;;;0.00;0.00;;;;;;;18.72;89.87;100304.59;5016773;28;20214;-71
2022/08/14 00:47:39;;;;;;;3.83;1.30;;;;;;;18.91;88.66;100306.47;5015205;28;20316;-71
2022/08/14 00:50:07;;;;;;;0.00;0.00;;;;;;;19.00;87.98;100300.69;5013171;28;20179;-71
2022/08/14 00:52:33;;;;;;;0.00;0.00;;;;;;;19.05;87.60;100303.13;5015454;28;20184;-72
2022/08/14 00:54:59;;;;;;;0.00;0.00;;;;;;;19.10;87.43;100299.28;5016551;28;20189;-72
2022/08/14 00:57:27;;;;;;;0.00;0.00;;;;;;;19.03;87.62;100299.94;5016498;28;20183;-71
2022/08/14 00:59:52;;;;;;;0.00;0.00;;;;;;;19.12;87.36;100302.47;5016223;28;20180;-74
2022/08/14 01:02:23;;;;;;;0.00;0.00;;;;;;;19.13;86.33;100299.31;5016436;28;20183;-73
2022/08/14 01:04:50;;;;;;;3.90;2.20;;;;;;;19.10;86.31;100293.75;5016323;28;20275;-73
2022/08/14 01:07:19;;;;;;;0.20;0.20;;;;;;;18.98;86.93;100290.00;5016360;28;20170;-73
2022/08/14 01:09:47;;;;;;;0.17;0.17;;;;;;;18.92;87.54;100276.81;5016215;28;20174;-74
2022/08/14 01:12:15;;;;;;;0.00;0.00;;;;;;;18.83;88.08;100284.59;5016606;28;20178;-73
2022/08/14 01:14:40;;;;;;;0.00;0.00;;;;;;;18.77;88.67;100283.31;5015541;28;20196;-73
2022/08/14 01:17:06;;;;;;;0.00;0.00;;;;;;;18.62;89.42;100276.69;5016230;28;20177;-73
2022/08/14 01:22:17;;;;;;;0.00;0.00;;;;;;;18.47;91.29;100274.88;5013499;28;20712;-74
2022/08/14 01:24:42;;;;;;;0.00;0.00;;;;;;;18.21;92.84;100273.59;5013306;28;20213;-73
2022/08/14 01:27:14;;;;;;;0.00;0.00;;;;;;;18.39;93.02;100277.53;5012850;28;20223;-72
2022/08/14 01:29:40;;;;;;;0.10;0.10;;;;;;;18.36;91.99;100272.69;5013034;28;20256;-73
2022/08/14 01:32:06;;;;;;;0.20;0.20;;;;;;;18.22;92.57;100279.94;5013138;28;20247;-73
2022/08/14 01:34:31;;;;;;;0.93;0.47;;;;;;;18.17;93.25;100274.72;5013307;28;20180;-73
2022/08/14 01:36:59;;;;;;;0.40;0.40;;;;;;;18.02;94.39;100265.34;5012923;28;20191;-73
2022/08/14 01:39:24;;;;;;;0.00;0.00;;;;;;;17.94;95.34;100260.84;5012790;28;20172;-73
2022/08/14 01:41:59;;;;;;;0.20;0.20;;;;;;;17.94;95.71;100263.59;5013024;28;20169;-73
2022/08/14 01:44:30;;;;;;;0.00;0.00;;;;;;;17.85;96.89;100261.09;5013028;28;20211;-73
2022/08/14 01:47:00;;;;;;;0.00;0.00;;;;;;;17.79;97.71;100260.59;5012749;28;20615;-74
2022/08/14 01:49:30;;;;;;;0.00;0.00;;;;;;;17.84;97.93;100262.25;5012504;28;20183;-73
2022/08/14 01:51:55;;;;;;;0.00;0.00;;;;;;;18.02;97.62;100257.88;5012878;28;20226;-74
2022/08/14 01:54:22;;;;;;;0.00;0.00;;;;;;;18.14;96.97;100254.94;5012740;28;20177;-74
2022/08/14 01:56:55;;;;;;;0.00;0.00;;;;;;;18.26;96.24;100262.25;5012469;28;20280;-73
2022/08/14 01:59:31;;;;;;;0.00;0.00;;;;;;;18.31;95.76;100256.41;5012429;28;20188;-74
2022/08/14 02:01:59;;;;;;;0.87;0.87;;;;;;;18.18;94.98;100255.00;5012755;28;20173;-73
2022/08/14 02:04:29;;;;;;;0.00;0.00;;;;;;;18.13;95.13;100247.00;5012662;28;20268;-74
2022/08/14 02:06:55;;;;;;;0.00;0.00;;;;;;;17.86;95.98;100242.53;5012227;28;20173;-74
2022/08/14 02:09:20;;;;;;;0.00;0.00;;;;;;;17.98;96.36;100250.69;5012499;28;20177;-74
2022/08/14 02:11:46;;;;;;;0.00;0.00;;;;;;;18.16;95.24;100251.78;5012391;28;20169;-74
2022/08/14 02:14:12;;;;;;;0.00;0.00;;;;;;;18.23;94.37;100245.63;5011029;28;20264;-74
2022/08/14 02:16:40;;;;;;;0.00;0.00;;;;;;;18.19;94.51;100251.06;5012193;28;20207;-74
2022/08/14 02:19:14;;;;;;;0.00;0.00;;;;;;;18.10;94.80;100233.94;5011686;28;20543;-74
2022/08/14 02:21:41;;;;;;;0.00;0.00;;;;;;;18.26;95.01;100240.13;5012298;28;20215;-74
2022/08/14 02:24:07;;;;;;;0.00;0.00;;;;;;;18.32;94.48;100232.31;5012298;28;20199;-74
2022/08/14 02:26:36;;;;;;;0.00;0.00;;;;;;;18.26;93.92;100233.81;5012222;28;20643;-74
2022/08/14 02:29:08;;;;;;;0.00;0.00;;;;;;;17.99;95.73;100238.44;5011679;28;20181;-74
2022/08/14 02:31:37;;;;;;;0.00;0.00;;;;;;;18.18;95.32;100234.84;5011927;28;20177;-74
2022/08/14 02:34:05;;;;;;;0.00;0.00;;;;;;;18.20;94.10;100238.03;5012000;28;20177;-73
2022/08/14 02:36:30;;;;;;;3.23;2.90;;;;;;;18.05;94.42;100237.78;5011998;28;20766;-73
2022/08/14 02:38:57;;;;;;;0.00;0.00;;;;;;;17.97;95.30;100233.28;5011683;28;20254;-73
2022/08/14 02:41:24;;;;;;;0.00;0.00;;;;;;;17.97;95.72;100229.72;5012009;28;20507;-74
2022/08/14 02:43:49;;;;;;;0.07;0.07;;;;;;;17.90;95.91;100227.63;5011799;28;20205;-74
2022/08/14 02:46:16;;;;;;;0.00;0.00;;;;;;;17.85;96.51;100227.91;5012178;28;20258;-74
2022/08/14 02:48:42;;;;;;;0.00;0.00;;;;;;;17.61;97.69;100225.44;5011160;28;20175;-74
2022/08/14 02:51:11;;;;;;;0.20;0.20;;;;;;;17.48;98.99;100220.03;5011888;28;20263;-74
2022/08/14 02:53:43;;;;;;;0.00;0.00;;;;;;;17.67;99.16;100226.75;5011736;28;20172;-74
2022/08/14 02:56:14;;;;;;;0.00;0.00;;;;;;;17.83;98.88;100224.72;5011641;28;20176;-74
2022/08/14 02:58:45;;;;;;;0.00;0.00;;;;;;;17.91;97.31;100222.88;5010974;28;20177;-74
2022/08/14 03:01:12;;;;;;;0.00;0.00;;;;;;;17.88;95.89;100220.84;5010365;28;20635;-74
2022/08/14 03:03:38;;;;;;;0.40;0.40;;;;;;;17.78;96.10;100222.25;5011541;28;20608;-73
2022/08/14 03:06:04;;;;;;;0.00;0.00;;;;;;;17.53;97.47;100230.03;5011405;28;20408;-74
2022/08/14 03:08:32;;;;;;;0.00;0.00;;;;;;;17.56;98.41;100212.72;5011101;28;20172;-73
2022/08/14 03:11:05;;;;;;;0.00;0.00;;;;;;;17.62;98.47;100222.28;5011723;28;20575;-74
2022/08/14 03:13:33;;;;;;;0.00;0.00;;;;;;;17.79;98.04;100221.06;5009818;28;20173;-74
2022/08/14 03:15:58;;;;;;;0.00;0.00;;;;;;;17.55;97.90;100211.13;5010102;28;20196;-74
2022/08/14 03:18:26;;;;;;;0.00;0.00;;;;;;;17.32;99.40;100210.22;5010679;28;20188;-74
2022/08/14 03:20:51;;;;;;;0.00;0.00;;;;;;;17.31;100.00;100208.63;5011212;28;20188;-74
2022/08/14 03:23:18;;;;;;;0.00;0.00;;;;;;;17.49;99.59;100213.34;5011115;28;20181;-74
2022/08/14 03:25:44;;;;;;;0.00;0.00;;;;;;;17.39;99.54;100205.66;5011620;28;20231;-74
2022/08/14 03:28:10;;;;;;;0.00;0.00;;;;;;;17.36;100.00;100209.16;5010925;28;20680;-74
2022/08/14 03:30:37;;;;;;;0.00;0.00;;;;;;;17.43;100.00;100202.97;5010971;28;20568;-74
2022/08/14 03:33:04;;;;;;;0.00;0.00;;;;;;;17.23;100.00;100194.69;5011403;28;20180;-72
2022/08/14 03:35:29;;;;;;;0.00;0.00;;;;;;;17.11;100.00;100197.56;5011140;28;20177;-72
2022/08/14 03:38:03;;;;;;;0.00;0.00;;;;;;;16.94;100.00;100200.75;5010845;28;20172;-74
2022/08/14 03:40:29;;;;;;;0.00;0.00;;;;;;;16.73;100.00;100197.50;5009342;28;20194;-74
2022/08/14 03:42:54;;;;;;;0.00;0.00;;;;;;;16.68;100.00;100186.75;5010408;28;20655;-74
2022/08/14 03:45:19;;;;;;;0.00;0.00;;;;;;;16.90;100.00;100184.09;5010735;28;20196;-74
2022/08/14 03:47:45;;;;;;;0.00;0.00;;;;;;;17.01;100.00;100186.28;5009672;28;20188;-74
2022/08/14 03:50:10;;;;;;;0.00;0.00;;;;;;;17.02;100.00;100177.66;5010769;28;20522;-74
2022/08/14 03:52:41;;;;;;;0.00;0.00;;;;;;;17.20;100.00;100178.03;5010932;28;20192;-74
2022/08/14 03:55:11;;;;;;;0.00;0.00;;;;;;;17.08;100.00;100175.44;5010784;28;20271;-73
2022/08/14 03:57:37;;;;;;;0.00;0.00;;;;;;;17.05;100.00;100184.41;5010471;28;20173;-74
2022/08/14 04:00:10;;;;;;;0.00;0.00;;;;;;;17.09;100.00;100175.06;5010693;28;20261;-74
2022/08/14 04:02:39;;;;;;;0.00;0.00;;;;;;;17.16;100.00;100174.41;5010590;28;20188;-74
2022/08/14 04:05:08;;;;;;;0.00;0.00;;;;;;;17.17;100.00;100182.31;5010570;28;20212;-74
2022/08/14 04:07:33;;;;;;;0.00;0.00;;;;;;;17.32;100.00;100175.13;5008817;28;20272;-74
2022/08/14 04:09:59;;;;;;;0.00;0.00;;;;;;;17.35;100.00;100171.63;5010185;28;20243;-75
2022/08/14 04:12:25;;;;;;;0.00;0.00;;;;;;;17.25;100.00;100177.75;5010538;28;20219;-74
2022/08/14 04:14:51;;;;;;;0.00;0.00;;;;;;;17.23;100.00;100169.03;5008818;28;20599;-73
2022/08/14 04:17:20;;;;;;;0.00;0.00;;;;;;;17.45;100.00;100171.06;5010387;28;20165;-75
2022/08/14 04:19:46;;;;;;;0.00;0.00;;;;;;;17.44;99.83;100168.66;5010214;28;20578;-74
2022/08/14 04:22:13;;;;;;;0.00;0.00;;;;;;;17.47;100.00;100174.25;5010491;28;20265;-74
2022/08/14 04:24:39;;;;;;;0.00;0.00;;;;;;;17.52;99.89;100181.47;5010421;28;20235;-74
2022/08/14 04:27:10;;;;;;;0.00;0.00;;;;;;;17.58;99.65;100174.47;5009991;28;20177;-74
2022/08/14 04:29:40;;;;;;;0.00;0.00;;;;;;;17.23;100.00;100164.31;5010005;28;20177;-74
2022/08/14 04:32:08;;;;;;;0.00;0.00;;;;;;;17.33;100.00;100173.16;5010326;28;20169;-74
2022/08/14 04:34:35;;;;;;;0.00;0.00;;;;;;;17.49;100.00;100160.88;5010451;28;20204;-74
2022/08/14 04:45:13;;;;;;;0.00;0.00;;;;;;;16.78;100.00;100169.59;5010332;28;20210;-74
2022/08/14 04:50:23;;;;;;;0.00;0.00;;;;;;;16.91;100.00;100158.09;5009940;28;20183;-74
2022/08/14 04:52:48;;;;;;;0.00;0.00;;;;;;;17.05;100.00;100163.13;5010266;28;20172;-74
2022/08/14 04:55:14;;;;;;;0.00;0.00;;;;;;;16.97;100.00;100160.59;5011381;28;20177;-73
2022/08/14 04:57:39;;;;;;;0.00;0.00;;;;;;;16.98;100.00;100153.91;5013983;28;20184;-74
2022/08/14 05:00:05;;;;;;;0.00;0.00;;;;;;;17.18;100.00;100155.50;5013470;28;20180;-74
2022/08/14 05:02:33;;;;;;;0.00;0.00;;;;;;;17.32;100.00;100143.94;5013696;28;20586;-75
2022/08/14 05:04:58;;;;;;;0.00;0.00;;;;;;;17.42;100.00;100144.16;5013480;28;20202;-74
2022/08/14 05:07:24;;;;;;;0.00;0.00;;;;;;;17.54;100.00;100132.16;5013485;28;20629;-74
2022/08/14 05:09:49;;;;;;;0.00;0.00;;;;;;;17.66;100.00;100134.78;5013453;28;20192;-75
2022/08/14 05:12:15;;;;;;;0.00;0.00;;;;;;;17.82;100.00;100140.22;5013678;28;20183;-75
2022/08/14 05:14:40;;;;;;;0.00;0.00;;;;;;;17.73;100.00;100142.41;5011949;28;20199;-74
2022/08/14 05:17:06;;;;;;;0.00;0.00;;;;;;;17.67;100.00;100144.66;5013332;28;20211;-75
2022/08/14 05:19:31;;;;;;;0.00;0.00;;;;;;;17.76;100.00;100136.94;5013186;28;20184;-74
2022/08/14 05:21:57;;;;;;;0.00;0.00;;;;;;;17.88;100.00;100140.69;5013453;28;20202;-74
2022/08/14 05:24:22;;;;;;;0.00;0.00;;;;;;;17.90;100.00;100141.94;5013302;28;20192;-74
2022/08/14 05:26:48;;;;;;;0.00;0.00;;;;;;;17.97;100.00;100139.31;5012921;28;20168;-74
2022/08/14 05:29:13;;;;;;;0.17;0.17;;;;;;;18.01;100.00;100142.13;5012946;28;20263;-76
2022/08/14 05:31:40;;;;;;;0.10;0.10;;;;;;;18.09;100.00;100143.84;5013101;28;20615;-75
2022/08/14 05:34:07;;;;;;;0.00;0.00;;;;;;;18.19;100.00;100145.97;5013301;28;20204;-76
2022/08/14 05:36:33;;;;;;;0.00;0.00;;;;;;;18.27;100.00;100149.66;5011953;28;20605;-76
2022/08/14 05:38:59;;;;;;;0.00;0.00;;;;;;;18.37;98.93;100135.19;5012698;28;20211;-76
2022/08/14 05:41:25;;;;;;;0.00;0.00;;;;;;;18.47;97.71;100134.56;5013072;28;20592;-76
2022/08/14 05:43:51;;;;;;;0.00;0.00;;;;;;;18.59;97.27;100139.09;5013531;28;20274;-76
2022/08/14 05:46:21;;;;;;;0.00;0.00;;;;;;;18.73;96.07;100125.50;5012761;28;20304;-76
2022/08/14 05:48:52;;;;;;;0.53;0.33;;;;;;;18.85;95.02;100128.03;5012282;28;20205;-75
2022/08/14 05:51:18;;;;;;;0.00;0.00;;;;;;;18.99;94.08;100121.91;5011698;28;20175;-76
2022/08/14 05:53:43;;;;;;;0.30;0.30;;;;;;;19.11;93.50;100118.09;5012849;28;20251;-76
2022/08/14 05:56:08;;;;;;;0.00;0.00;;;;;;;19.18;92.54;100104.31;5012813;28;20192;-76
2022/08/14 05:58:34;;;;;;;0.00;0.00;;;;;;;19.31;92.35;100111.19;5012061;28;20188;-77
2022/08/14 06:01:00;;;;;;;0.73;0.73;;;;;;;19.43;92.15;100115.69;5012832;28;20196;-75
2022/08/14 06:03:25;;;;;;;0.20;0.20;;;;;;;19.58;91.35;100115.50;5012719;28;20170;-74
2022/08/14 06:05:52;;;;;;;0.00;0.00;;;;;;;19.73;90.12;100118.41;5012068;28;20201;-74
2022/08/14 06:08:22;;;;;;;0.00;0.00;;;;;;;19.80;88.90;100113.72;5011880;28;20189;-74
2022/08/14 06:10:49;;;;;;;0.00;0.00;;;;;;;19.98;89.42;100107.56;5012442;28;20177;-74
2022/08/14 06:13:15;;;;;;;0.27;0.20;;;;;;;20.07;87.31;100111.56;5009584;28;20600;-74
2022/08/14 06:15:41;;;;;;;0.10;0.10;;;;;;;20.11;86.26;100106.88;5012396;28;20641;-75
2022/08/14 06:18:07;;;;;;;0.30;0.30;;;;;;;20.18;86.26;100103.34;5012038;28;20173;-74
2022/08/14 06:20:33;;;;;;;0.53;0.53;;;;;;;20.22;85.71;100109.72;5011846;28;20171;-74
2022/08/14 06:22:58;;;;;;;0.20;0.20;;;;;;;20.25;85.74;100097.03;5012329;28;20229;-75
2022/08/14 06:25:24;;;;;;;0.30;0.30;;;;;;;20.33;85.55;100090.38;5005967;28;20293;-76
2022/08/14 06:27:49;;;;;;;0.00;0.00;;;;;;;20.41;85.67;100092.84;5005203;28;20186;-75
2022/08/14 06:30:24;;;;;;;0.00;0.00;;;;;;;20.49;85.31;100088.91;5012004;28;20183;-75
2022/08/14 06:32:50;;;;;;;1.00;1.00;;;;;;;20.61;85.07;100098.91;5011321;28;20209;-74
2022/08/14 06:35:19;;;;;;;0.80;0.10;;;;;;;20.67;84.96;100102.09;5012050;28;20173;-75
2022/08/14 06:37:50;;;;;;;0.00;0.00;;;;;;;20.90;84.09;100101.84;5012365;28;20616;-75
2022/08/14 06:40:30;;;;;;;0.93;0.93;;;;;;;20.93;82.29;100092.72;5011764;28;20178;-75
2022/08/14 06:42:58;;;;;;;0.30;0.30;;;;;;;21.17;82.58;100105.13;5012437;28;20169;-74
2022/08/14 06:45:23;;;;;;;0.40;0.40;;;;;;;21.15;81.61;100096.41;5012042;28;20206;-74
2022/08/14 06:47:49;;;;;;;0.00;0.00;;;;;;;21.25;81.23;100098.44;5010535;28;20639;-74
2022/08/14 06:50:17;;;;;;;0.00;0.00;;;;;;;21.35;81.34;100106.00;5011154;28;20184;-74
2022/08/14 06:52:43;;;;;;;0.10;0.10;;;;;;;21.48;80.71;100106.44;5011858;28;20180;-74
2022/08/14 06:55:11;;;;;;;0.00;0.00;;;;;;;21.49;80.93;100105.25;5011978;28;20528;-74
2022/08/14 06:57:41;;;;;;;1.30;1.10;;;;;;;21.66;80.56;100094.16;5011508;28;20270;-74
2022/08/14 07:00:10;;;;;;;0.00;0.00;;;;;;;21.72;80.62;100088.22;5011353;28;20230;-74
2022/08/14 07:08:05;;;;;;;0.37;0.37;;;;;;;22.04;78.16;100102.94;5022398;28;20219;-74
2022/08/14 07:10:31;;;;;;;0.60;0.60;;;;;;;22.10;78.61;100095.81;5019486;28;20196;-74
2022/08/14 07:12:57;;;;;;;0.20;0.20;;;;;;;22.19;78.41;100092.63;5019913;28;20172;-72
2022/08/14 07:15:22;;;;;;;0.00;0.00;;;;;;;22.36;78.87;100091.81;5019280;28;20179;-72
2022/08/14 07:17:49;;;;;;;0.00;0.00;;;;;;;22.43;77.13;100094.59;5018323;28;20625;-72
2022/08/14 07:20:17;;;;;;;2.97;2.77;;;;;;;22.53;76.34;100085.41;5025266;28;20469;-72
2022/08/14 07:22:42;;;;;;;0.00;0.00;;;;;;;22.61;76.37;100085.41;5031060;28;20230;-74
2022/08/14 07:25:08;;;;;;;0.00;0.00;;;;;;;22.68;76.47;100090.94;5030786;28;20207;-74
2022/08/14 07:27:33;;;;;;;0.00;0.00;;;;;;;22.80;75.87;100096.09;5030824;28;20184;-75
2022/08/14 07:30:02;;;;;;;0.80;0.80;;;;;;;23.01;74.95;100101.63;5030552;28;20179;-74
2022/08/14 07:32:27;;;;;;;0.00;0.00;;;;;;;23.05;75.03;100101.59;5029765;28;20183;-72
2022/08/14 07:34:52;;;;;;;1.10;1.10;;;;;;;23.18;74.71;100101.97;5031230;28;20541;-72
2022/08/14 07:37:18;;;;;;;0.30;0.30;;;;;;;23.22;74.10;100103.53;5030557;28;20534;-72
2022/08/14 07:39:43;;;;;;;0.00;0.00;;;;;;;23.37;73.45;100093.88;5030302;28;20677;-73
2022/08/14 07:42:08;;;;;;;0.37;0.37;;;;;;;23.45;73.53;100095.44;5029228;28;20212;-73
2022/08/14 07:44:34;;;;;;;0.53;0.50;;;;;;;23.67;73.21;100093.31;5011202;28;20290;-73
2022/08/14 07:46:59;;;;;;;0.30;0.30;;;;;;;23.71;72.97;100096.06;5010862;28;20176;-72
2022/08/14 07:49:26;;;;;;;0.00;0.00;;;;;;;23.80;73.04;100088.06;5010555;28;20172;-72
2022/08/14 07:51:52;;;;;;;0.00;0.00;;;;;;;23.90;72.08;100101.16;5010900;28;20687;-72
2022/08/14 07:54:17;;;;;;;0.30;0.30;;;;;;;24.04;71.02;100098.25;5010687;28;20263;-71
2022/08/14 07:56:42;;;;;;;0.27;0.27;;;;;;;24.17;70.81;100098.53;5010386;28;20651;-71
2022/08/14 07:59:08;;;;;;;1.80;1.67;;;;;;;24.35;69.46;100094.81;5010240;28;20180;-72
2022/08/14 08:01:33;;;;;;;1.40;1.33;;;;;;;24.33;69.13;100090.44;5008730;28;20564;-71
2022/08/14 08:04:02;;;;;;;0.10;0.00;;;;;;;24.40;69.09;100089.56;5010790;28;20534;-72
2022/08/14 08:06:28;;;;;;;0.87;0.77;;;;;;;24.53;68.47;100096.22;5010515;28;20588;-71
2022/08/14 08:08:57;;;;;;;2.00;1.10;;;;;;;24.63;67.87;100094.53;5008611;28;20287;-71
2022/08/14 08:11:26;;;;;;;0.50;0.50;;;;;;;24.66;67.83;100092.88;5007877;28;20184;-72
2022/08/14 08:13:54;;;;;;;7.90;7.40;;;;;;;24.74;67.84;100091.63;5008602;28;20188;-72
2022/08/14 08:16:22;;;;;;;0.00;0.00;;;;;;;24.89;67.32;100090.25;5007695;28;20180;-72
2022/08/14 08:18:49;;;;;;;0.40;0.40;;;;;;;25.04;67.53;100079.72;5009619;28;20180;-71
2022/08/14 08:21:14;;;;;;;0.10;0.10;;;;;;;25.08;66.49;100084.03;5010135;28;20520;-72
2022/08/14 08:23:39;;;;;;;0.10;0.10;;;;;;;25.04;66.23;100090.88;5010187;28;20184;-72
2022/08/14 08:26:05;;;;;;;0.10;0.10;;;;;;;25.16;65.96;100093.91;5010342;28;20266;-72
2022/08/14 08:28:30;;;;;;;1.80;1.70;;;;;;;25.23;65.47;100090.22;5009647;28;20204;-73
2022/08/14 08:30:58;;;;;;;0.20;0.20;;;;;;;25.17;65.53;100081.53;5014580;28;20188;-72
2022/08/14 08:33:27;;;;;;;0.90;0.83;;;;;;;25.35;64.52;100075.69;5013983;28;20180;-71
2022/08/14 08:35:56;;;;;;;0.30;0.30;;;;;;;25.44;64.22;100080.75;5014195;28;20196;-72
2022/08/14 08:38:24;;;;;;;0.53;0.53;;;;;;;25.49;64.07;100071.88;5013430;28;20275;-71
2022/08/14 08:40:53;;;;;;;0.87;0.87;;;;;;;25.29;64.36;100079.34;5014108;28;20528;-72
2022/08/14 08:43:19;;;;;;;3.20;1.77;;;;;;;25.33;64.55;100066.13;5014115;28;20541;-72
2022/08/14 08:45:56;;;;;;;0.40;0.40;;;;;;;25.06;64.64;100061.28;5013993;28;20193;-71
2022/08/14 08:48:27;;;;;;;1.00;1.00;;;;;;;25.28;64.30;100067.38;5013792;28;20180;-71
2022/08/14 08:50:54;;;;;;;1.30;1.30;;;;;;;25.48;63.66;100073.91;5008766;28;20688;-72
2022/08/14 08:53:19;;;;;;;0.10;0.10;;;;;;;25.73;62.82;100065.13;5011040;28;20243;-71
2022/08/14 08:55:45;;;;;;;0.97;0.97;;;;;;;25.80;62.51;100064.25;5013854;28;20184;-71
2022/08/14 08:58:16;;;;;;;0.40;0.10;;;;;;;25.92;61.77;100058.06;5013434;28;20212;-72
2022/08/14 09:00:46;;;;;;;0.20;0.20;;;;;;;25.74;61.19;100049.13;5013770;28;20194;-72
2022/08/14 09:03:18;;;;;;;0.00;0.00;;;;;;;25.66;62.29;100042.06;5013998;28;20181;-73
2022/08/14 09:05:50;;;;;;;1.43;1.33;;;;;;;25.71;62.07;100047.97;5013954;28;20203;-73
2022/08/14 09:08:21;;;;;;;3.03;2.83;;;;;;;25.79;61.42;100037.47;5013362;28;20208;-72
2022/08/14 09:10:47;;;;;;;0.40;0.40;;;;;;;25.95;61.79;100040.41;5006283;28;20211;-74
2022/08/14 09:13:14;;;;;;;1.40;1.33;;;;;;;25.85;59.73;100040.56;5012024;28;20176;-74
2022/08/14 09:15:44;;;;;;;1.50;1.40;;;;;;;25.80;59.65;100030.66;5013556;28;20173;-73
2022/08/14 09:18:12;;;;;;;0.17;0.17;;;;;;;25.97;60.44;100028.75;5013171;28;20180;-75
2022/08/14 09:20:39;;;;;;;0.47;0.47;;;;;;;26.06;60.08;100015.00;5011927;28;20192;-74
2022/08/14 09:23:09;;;;;;;0.47;0.47;;;;;;;26.25;59.85;100024.66;5013276;28;20552;-74
2022/08/14 09:25:36;;;;;;;0.43;0.43;;;;;;;26.14;59.70;100026.88;5013275;28;20248;-75
2022/08/14 09:28:03;;;;;;;1.03;1.03;;;;;;;26.02;59.50;100020.66;5013113;28;20599;-74
2022/08/14 09:30:31;;;;;;;0.10;0.10;;;;;;;26.17;60.10;100024.00;5012522;28;20173;-72
2022/08/14 09:33:02;;;;;;;5.93;1.80;;;;;;;26.16;59.18;100011.22;5013293;28;20230;-72
2022/08/14 09:35:40;;;;;;;0.73;0.67;;;;;;;25.91;59.65;100014.47;5011692;28;20585;-71
2022/08/14 09:38:15;;;;;;;0.30;0.30;;;;;;;25.86;60.28;100002.97;5013001;28;20211;-71
2022/08/14 09:40:43;;;;;;;0.77;0.77;;;;;;;26.07;60.41;100013.78;5012209;28;20197;-71
2022/08/14 09:43:15;;;;;;;0.93;0.93;;;;;;;26.20;59.64;100005.56;5013043;28;20177;-71
2022/08/14 09:45:48;;;;;;;1.33;1.10;;;;;;;26.11;58.99;99997.72;5012627;28;20747;-71
2022/08/14 09:48:16;;;;;;;1.37;1.37;;;;;;;26.06;59.52;99993.41;5012334;28;20180;-72
2022/08/14 09:50:47;;;;;;;0.00;0.00;;;;;;;26.50;58.90;99988.59;5013019;28;20188;-71
2022/08/14 09:53:16;;;;;;;1.30;0.93;;;;;;;26.43;58.69;99987.94;5013003;28;20204;-72
2022/08/14 09:55:42;;;;;;;0.93;0.60;;;;;;;26.35;58.05;99984.47;5012790;28;20231;-71
2022/08/14 09:58:11;;;;;;;0.30;0.30;;;;;;;26.46;58.16;99985.03;5012538;28;20671;-71
2022/08/14 10:00:48;;;;;;;0.20;0.20;;;;;;;26.47;58.16;99981.03;5012021;28;20174;-71
2022/08/14 10:03:33;;;;;;;0.03;0.03;;;;;;;26.67;57.77;99981.81;5012616;28;20172;-72
2022/08/14 10:06:10;;;;;;;0.00;0.00;;;;;;;26.93;57.21;99970.88;5013105;28;20276;-72
2022/08/14 10:08:51;;;;;;;0.87;0.87;;;;;;;27.04;56.23;99965.81;5011883;28;20203;-72
2022/08/14 10:11:28;;;;;;;0.97;0.90;;;;;;;27.11;55.94;99959.25;5011481;28;20182;-72
2022/08/14 10:13:57;;;;;;;0.63;0.63;;;;;;;27.15;56.30;99965.56;5010713;28;20272;-71
2022/08/14 10:16:28;;;;;;;0.17;0.17;;;;;;;27.15;55.98;99962.78;5011791;28;20266;-71
2022/08/14 10:19:05;;;;;;;0.60;0.60;;;;;;;27.17;55.63;99963.91;5011832;28;20544;-71
2022/08/14 10:21:32;;;;;;;1.47;1.37;;;;;;;27.25;55.01;99956.13;5012569;28;20226;-71
2022/08/14 10:23:57;;;;;;;0.00;0.00;;;;;;;27.18;54.92;99951.47;5011759;28;20205;-71
2022/08/14 10:26:24;;;;;;;0.37;0.37;;;;;;;27.44;54.04;99954.47;5012891;28;20316;-71
2022/08/14 10:28:51;;;;;;;0.67;0.67;;;;;;;27.47;54.28;99959.19;5012122;28;20184;-72
2022/08/14 10:31:28;;;;;;;0.57;0.53;;;;;;;27.53;53.06;99957.44;5012541;28;20177;-72
2022/08/14 10:34:01;;;;;;;0.67;0.67;;;;;;;27.52;53.24;99953.06;5012552;28;20240;-71
2022/08/14 10:36:31;;;;;;;0.00;0.00;;;;;;;27.44;54.07;99943.22;5012100;28;20664;-71
2022/08/14 10:39:02;;;;;;;1.17;0.60;;;;;;;27.22;53.65;99935.34;5011727;28;20175;-71
2022/08/14 10:41:44;;;;;;;1.97;1.87;;;;;;;27.64;53.75;99935.56;5011831;28;20176;-72
2022/08/14 10:44:13;;;;;;;0.87;0.87;;;;;;;27.77;53.73;99933.56;5011860;28;20533;-71
2022/08/14 10:46:45;;;;;;;0.20;0.20;;;;;;;27.98;52.88;99932.22;5011432;28;20309;-71
2022/08/14 10:49:22;;;;;;;0.87;0.83;;;;;;;27.85;52.03;99926.53;5011330;28;20174;-72
2022/08/14 10:52:06;;;;;;;0.10;0.10;;;;;;;27.76;52.51;99909.53;5011524;28;20199;-72
2022/08/14 10:54:34;;;;;;;0.60;0.60;;;;;;;28.09;52.13;99920.69;5012199;28;20704;-71
2022/08/14 10:57:17;;;;;;;0.00;0.00;;;;;;;28.13;51.35;99913.75;5011289;28;20267;-71
2022/08/14 10:59:57;;;;;;;0.30;0.30;;;;;;;27.69;52.63;99912.53;5011157;28;20205;-71
2022/08/14 11:02:31;;;;;;;0.90;0.63;;;;;;;27.98;52.23;99914.59;5011442;28;20170;-72
2022/08/14 11:05:01;;;;;;;0.80;0.70;;;;;;;28.26;51.46;99907.38;5011468;28;20221;-72
2022/08/14 11:07:28;;;;;;;0.90;0.90;;;;;;;28.54;50.43;99897.34;5010472;28;20613;-72
2022/08/14 11:09:58;;;;;;;0.63;0.57;;;;;;;28.60;50.19;99887.91;5008696;28;20798;-71
2022/08/14 11:12:25;;;;;;;3.60;3.50;;;;;;;28.76;50.09;99889.81;5009676;28;20291;-73
2022/08/14 11:14:53;;;;;;;0.93;0.93;;;;;;;28.84;49.49;99888.38;5008334;28;20634;-72
2022/08/14 11:17:19;;;;;;;0.20;0.20;;;;;;;28.61;49.76;99894.31;5005863;28;20589;-73
2022/08/14 11:19:45;;;;;;;1.53;1.43;;;;;;;28.30;50.16;99889.19;5011001;28;20216;-73
2022/08/14 11:22:11;;;;;;;0.60;0.60;;;;;;;28.54;50.33;99889.69;5011813;28;20176;-74
2022/08/14 11:24:40;;;;;;;1.00;1.00;;;;;;;28.58;50.39;99883.97;5010707;28;20238;-73
2022/08/14 11:27:07;;;;;;;0.73;0.73;;;;;;;28.66;51.35;99885.34;5009970;28;20192;-73
2022/08/14 11:29:34;;;;;;;0.23;0.23;;;;;;;28.55;49.95;99887.69;5011329;28;20571;-73
2022/08/14 11:32:01;;;;;;;0.50;0.50;;;;;;;28.73;50.70;99885.88;5011453;28;20174;-74
2022/08/14 11:34:26;;;;;;;0.00;0.00;;;;;;;29.05;48.77;99878.47;5011416;28;20624;-74
2022/08/14 11:36:51;;;;;;;1.57;1.47;;;;;;;29.07;49.03;99875.22;5011175;28;20183;-73
2022/08/14 11:39:19;;;;;;;0.47;0.47;;;;;;;28.98;49.52;99885.13;5011046;28;20692;-74
2022/08/14 11:41:45;;;;;;;0.03;0.03;;;;;;;29.19;48.32;99880.03;5011611;28;20176;-72
2022/08/14 11:44:10;;;;;;;0.73;0.73;;;;;;;28.99;49.13;99867.03;5011325;28;20169;-74
2022/08/14 11:46:35;;;;;;;0.67;0.67;;;;;;;28.79;49.10;99862.81;5011294;28;20574;-74